sensor_id;sensor_type;location;lat;lon;timestamp;noise_LAeq;noise_LA_min;noise_LA_max;noise_LA01;noise_LA95
37279;Laerm;7458;49.002;8.472;2023-07-31T00:00:35;42.06;37.12;48.05;;
37279;Laerm;7458;49.002;8.472;2023-07-31T00:03:00;42.09;36.20;48.10;;
37279;Laerm;7458;49.002;8.472;2023-07-31T00:05:27;42.40;37.70;48.05;;
37279;Laerm;7458;49.002;8.472;2023-07-31T00:07:53;42.52;38.05;47.98;;
37279;Laerm;7458;49.002;8.472;2023-07-31T00:10:20;42.58;37.52;48.23;;
37279;Laerm;7458;49.002;8.472;2023-07-31T00:12:46;42.18;36.69;47.72;;
37279;Laerm;7458;49.002;8.472;2023-07-31T00:15:14;41.46;35.66;47.44;;
37279;Laerm;7458;49.002;8.472;2023-07-31T00:17:40;41.52;36.20;47.57;;
37279;Laerm;7458;49.002;8.472;2023-07-31T00:20:06;41.45;35.36;47.93;;
37279;Laerm;7458;49.002;8.472;2023-07-31T00:22:32;42.16;37.70;47.95;;
37279;Laerm;7458;49.002;8.472;2023-07-31T00:24:58;42.43;36.91;48.29;;
37279;Laerm;7458;49.002;8.472;2023-07-31T00:27:25;42.09;36.69;47.84;;
37279;Laerm;7458;49.002;8.472;2023-07-31T00:29:51;42.48;37.70;50.70;;
37279;Laerm;7458;49.002;8.472;2023-07-31T00:32:17;41.96;37.32;48.05;;
37279;Laerm;7458;49.002;8.472;2023-07-31T00:34:43;41.87;36.91;47.67;;
37279;Laerm;7458;49.002;8.472;2023-07-31T00:37:09;42.26;37.35;55.18;;
37279;Laerm;7458;49.002;8.472;2023-07-31T00:39:35;41.93;37.12;47.84;;
37279;Laerm;7458;49.002;8.472;2023-07-31T00:42:01;42.25;37.12;47.65;;
37279;Laerm;7458;49.002;8.472;2023-07-31T00:44:27;41.59;36.20;47.79;;
37279;Laerm;7458;49.002;8.472;2023-07-31T00:46:55;42.25;37.70;48.16;;
37279;Laerm;7458;49.002;8.472;2023-07-31T00:49:22;42.43;37.32;48.23;;
37279;Laerm;7458;49.002;8.472;2023-07-31T00:51:48;42.40;37.52;47.65;;
37279;Laerm;7458;49.002;8.472;2023-07-31T00:54:14;42.26;37.12;48.12;;
37279;Laerm;7458;49.002;8.472;2023-07-31T00:56:41;42.47;37.88;47.88;;
37279;Laerm;7458;49.002;8.472;2023-07-31T00:59:09;42.30;36.69;48.13;;
37279;Laerm;7458;49.002;8.472;2023-07-31T01:01:35;42.22;37.70;48.05;;
37279;Laerm;7458;49.002;8.472;2023-07-31T01:04:01;42.52;38.67;48.12;;
37279;Laerm;7458;49.002;8.472;2023-07-31T01:06:42;42.05;37.52;48.05;;
37279;Laerm;7458;49.002;8.472;2023-07-31T01:09:42;41.99;37.12;47.88;;
37279;Laerm;7458;49.002;8.472;2023-07-31T01:12:15;42.14;37.52;48.12;;
37279;Laerm;7458;49.002;8.472;2023-07-31T01:15:01;42.21;37.12;47.81;;
37279;Laerm;7458;49.002;8.472;2023-07-31T01:17:27;41.45;35.36;48.25;;
37279;Laerm;7458;49.002;8.472;2023-07-31T01:19:55;42.10;35.94;48.18;;
37279;Laerm;7458;49.002;8.472;2023-07-31T01:28:20;42.59;37.32;47.98;;
37279;Laerm;7458;49.002;8.472;2023-07-31T01:30:48;42.37;36.69;48.29;;
37279;Laerm;7458;49.002;8.472;2023-07-31T01:33:16;42.32;36.45;47.98;;
37279;Laerm;7458;49.002;8.472;2023-07-31T01:35:45;42.02;37.52;48.28;;
37279;Laerm;7458;49.002;8.472;2023-07-31T01:38:11;43.13;36.45;52.57;;
37279;Laerm;7458;49.002;8.472;2023-07-31T01:40:37;42.68;37.12;48.48;;
37279;Laerm;7458;49.002;8.472;2023-07-31T01:43:03;43.29;38.81;48.25;;
37279;Laerm;7458;49.002;8.472;2023-07-31T01:45:29;42.82;38.52;48.00;;
37279;Laerm;7458;49.002;8.472;2023-07-31T01:47:55;42.60;37.70;48.20;;
37279;Laerm;7458;49.002;8.472;2023-07-31T01:50:20;42.34;37.88;47.96;;
37279;Laerm;7458;49.002;8.472;2023-07-31T01:52:46;42.38;38.05;47.98;;
37279;Laerm;7458;49.002;8.472;2023-07-31T01:55:12;42.54;36.91;48.18;;
37279;Laerm;7458;49.002;8.472;2023-07-31T01:57:37;42.64;38.37;48.58;;
37279;Laerm;7458;49.002;8.472;2023-07-31T02:00:04;42.78;37.12;48.26;;
37279;Laerm;7458;49.002;8.472;2023-07-31T02:02:31;43.07;38.52;49.73;;
37279;Laerm;7458;49.002;8.472;2023-07-31T02:04:56;44.60;38.37;55.85;;
37279;Laerm;7458;49.002;8.472;2023-07-31T02:07:22;43.08;39.21;48.25;;
37279;Laerm;7458;49.002;8.472;2023-07-31T02:09:48;42.86;39.08;48.12;;
37279;Laerm;7458;49.002;8.472;2023-07-31T02:12:15;43.33;38.95;48.77;;
37279;Laerm;7458;49.002;8.472;2023-07-31T02:14:41;42.53;38.05;48.26;;
37279;Laerm;7458;49.002;8.472;2023-07-31T02:17:06;42.90;38.52;48.21;;
37279;Laerm;7458;49.002;8.472;2023-07-31T02:19:32;43.07;39.08;48.43;;
37279;Laerm;7458;49.002;8.472;2023-07-31T02:21:58;42.66;38.21;47.96;;
37279;Laerm;7458;49.002;8.472;2023-07-31T02:24:24;45.63;39.46;65.82;;
37279;Laerm;7458;49.002;8.472;2023-07-31T02:26:50;45.65;38.67;63.58;;
37279;Laerm;7458;49.002;8.472;2023-07-31T02:29:16;43.44;39.92;48.71;;
37279;Laerm;7458;49.002;8.472;2023-07-31T02:31:41;43.69;40.23;55.96;;
37279;Laerm;7458;49.002;8.472;2023-07-31T02:34:07;43.68;40.23;48.66;;
37279;Laerm;7458;49.002;8.472;2023-07-31T02:36:33;43.67;40.23;48.80;;
37279;Laerm;7458;49.002;8.472;2023-07-31T02:38:58;43.70;39.70;49.89;;
37279;Laerm;7458;49.002;8.472;2023-07-31T02:41:24;43.26;39.34;48.21;;
37279;Laerm;7458;49.002;8.472;2023-07-31T02:43:50;42.69;37.88;48.15;;
37279;Laerm;7458;49.002;8.472;2023-07-31T02:46:16;42.85;38.67;48.12;;
37279;Laerm;7458;49.002;8.472;2023-07-31T02:48:41;42.84;39.08;48.36;;
37279;Laerm;7458;49.002;8.472;2023-07-31T02:51:07;47.98;39.70;67.39;;
37279;Laerm;7458;49.002;8.472;2023-07-31T02:53:33;43.51;39.70;48.99;;
37279;Laerm;7458;49.002;8.472;2023-07-31T02:55:59;46.85;40.53;62.73;;
37279;Laerm;7458;49.002;8.472;2023-07-31T02:58:25;43.49;39.92;48.92;;
37279;Laerm;7458;49.002;8.472;2023-07-31T03:00:50;43.87;39.92;48.71;;
37279;Laerm;7458;49.002;8.472;2023-07-31T03:03:16;43.54;40.13;48.46;;
37279;Laerm;7458;49.002;8.472;2023-07-31T03:05:42;44.20;40.03;53.08;;
37279;Laerm;7458;49.002;8.472;2023-07-31T03:08:08;43.67;39.46;50.87;;
37279;Laerm;7458;49.002;8.472;2023-07-31T03:10:33;43.72;40.03;48.58;;
37279;Laerm;7458;49.002;8.472;2023-07-31T03:12:59;43.66;40.23;48.76;;
37279;Laerm;7458;49.002;8.472;2023-07-31T03:15:25;43.58;39.70;48.48;;
37279;Laerm;7458;49.002;8.472;2023-07-31T03:17:51;43.66;40.13;51.69;;
37279;Laerm;7458;49.002;8.472;2023-07-31T03:20:17;43.88;40.43;49.56;;
37279;Laerm;7458;49.002;8.472;2023-07-31T03:22:43;44.00;40.89;49.02;;
37279;Laerm;7458;49.002;8.472;2023-07-31T03:25:09;44.32;40.71;48.78;;
37279;Laerm;7458;49.002;8.472;2023-07-31T03:27:35;43.71;40.23;49.06;;
37279;Laerm;7458;49.002;8.472;2023-07-31T03:30:03;44.23;41.46;50.67;;
37279;Laerm;7458;49.002;8.472;2023-07-31T03:32:29;44.01;40.62;51.76;;
37279;Laerm;7458;49.002;8.472;2023-07-31T03:34:55;47.71;40.62;64.02;;
37279;Laerm;7458;49.002;8.472;2023-07-31T03:37:20;47.41;40.62;62.69;;
37279;Laerm;7458;49.002;8.472;2023-07-31T03:39:46;49.05;40.80;68.51;;
37279;Laerm;7458;49.002;8.472;2023-07-31T03:42:12;44.05;40.89;49.50;;
37279;Laerm;7458;49.002;8.472;2023-07-31T03:44:38;45.00;41.14;56.85;;
37279;Laerm;7458;49.002;8.472;2023-07-31T03:47:04;44.12;40.62;49.21;;
37279;Laerm;7458;49.002;8.472;2023-07-31T03:49:31;45.50;40.98;55.31;;
37279;Laerm;7458;49.002;8.472;2023-07-31T03:51:56;45.59;41.22;58.24;;
37279;Laerm;7458;49.002;8.472;2023-07-31T03:54:22;44.91;40.71;58.41;;
37279;Laerm;7458;49.002;8.472;2023-07-31T03:56:49;45.54;41.38;56.08;;
37279;Laerm;7458;49.002;8.472;2023-07-31T03:59:14;44.38;41.06;49.12;;
37279;Laerm;7458;49.002;8.472;2023-07-31T04:01:40;44.25;41.46;48.88;;
37279;Laerm;7458;49.002;8.472;2023-07-31T04:04:06;47.06;40.89;63.58;;
37279;Laerm;7458;49.002;8.472;2023-07-31T04:06:32;44.43;41.38;51.63;;
37279;Laerm;7458;49.002;8.472;2023-07-31T04:08:58;45.07;41.81;52.55;;
37279;Laerm;7458;49.002;8.472;2023-07-31T04:11:24;45.31;42.22;51.77;;
37279;Laerm;7458;49.002;8.472;2023-07-31T04:13:50;44.89;41.96;53.98;;
37279;Laerm;7458;49.002;8.472;2023-07-31T04:16:15;45.08;41.89;58.44;;
37279;Laerm;7458;49.002;8.472;2023-07-31T04:18:41;44.85;42.13;53.45;;
37279;Laerm;7458;49.002;8.472;2023-07-31T04:21:07;52.95;42.29;69.55;;
37279;Laerm;7458;49.002;8.472;2023-07-31T04:23:33;45.59;41.46;57.45;;
37279;Laerm;7458;49.002;8.472;2023-07-31T04:25:58;45.03;42.03;56.06;;
37279;Laerm;7458;49.002;8.472;2023-07-31T04:28:24;45.11;41.89;55.47;;
37279;Laerm;7458;49.002;8.472;2023-07-31T04:30:52;56.32;42.03;74.02;;
37279;Laerm;7458;49.002;8.472;2023-07-31T04:33:18;44.76;42.03;50.25;;
37279;Laerm;7458;49.002;8.472;2023-07-31T04:35:53;46.27;41.68;67.28;;
37279;Laerm;7458;49.002;8.472;2023-07-31T04:38:21;45.21;41.96;51.66;;
37279;Laerm;7458;49.002;8.472;2023-07-31T04:40:47;45.57;41.38;58.06;;
37279;Laerm;7458;49.002;8.472;2023-07-31T04:43:13;44.95;41.89;53.73;;
37279;Laerm;7458;49.002;8.472;2023-07-31T04:45:39;44.75;42.03;51.27;;
37279;Laerm;7458;49.002;8.472;2023-07-31T04:48:05;44.80;41.19;54.00;;
37279;Laerm;7458;49.002;8.472;2023-07-31T04:50:30;56.75;41.46;79.13;;
37279;Laerm;7458;49.002;8.472;2023-07-31T04:52:56;45.03;41.46;56.73;;
37279;Laerm;7458;49.002;8.472;2023-07-31T04:55:22;45.10;41.89;54.25;;
37279;Laerm;7458;49.002;8.472;2023-07-31T04:57:48;44.86;41.61;53.10;;
37279;Laerm;7458;49.002;8.472;2023-07-31T05:00:14;44.99;41.82;54.33;;
37279;Laerm;7458;49.002;8.472;2023-07-31T05:02:39;48.81;41.89;65.58;;
37279;Laerm;7458;49.002;8.472;2023-07-31T05:05:05;49.54;42.09;66.30;;
37279;Laerm;7458;49.002;8.472;2023-07-31T05:07:31;48.78;41.96;65.13;;
37279;Laerm;7458;49.002;8.472;2023-07-31T05:09:57;47.61;41.75;64.63;;
37279;Laerm;7458;49.002;8.472;2023-07-31T05:12:23;48.11;41.61;64.94;;
37279;Laerm;7458;49.002;8.472;2023-07-31T05:14:49;52.01;41.53;67.44;;
37279;Laerm;7458;49.002;8.472;2023-07-31T05:17:14;47.93;41.89;61.82;;
37279;Laerm;7458;49.002;8.472;2023-07-31T05:19:40;61.67;44.90;79.50;;
37279;Laerm;7458;49.002;8.472;2023-07-31T05:22:06;65.28;42.65;78.63;;
37279;Laerm;7458;49.002;8.472;2023-07-31T05:24:32;45.84;41.46;67.42;;
37279;Laerm;7458;49.002;8.472;2023-07-31T05:26:59;48.47;41.22;67.77;;
37279;Laerm;7458;49.002;8.472;2023-07-31T05:29:24;47.72;41.68;64.30;;
37279;Laerm;7458;49.002;8.472;2023-07-31T05:31:50;48.28;41.14;61.99;;
37279;Laerm;7458;49.002;8.472;2023-07-31T05:34:16;50.15;42.03;65.37;;
37279;Laerm;7458;49.002;8.472;2023-07-31T05:36:42;48.09;41.53;60.95;;
37279;Laerm;7458;49.002;8.472;2023-07-31T05:39:08;52.09;41.14;68.96;;
37279;Laerm;7458;49.002;8.472;2023-07-31T05:41:35;48.54;41.61;63.38;;
37279;Laerm;7458;49.002;8.472;2023-07-31T05:44:01;47.28;39.58;63.00;;
37279;Laerm;7458;49.002;8.472;2023-07-31T05:46:27;50.34;40.71;70.47;;
37279;Laerm;7458;49.002;8.472;2023-07-31T05:48:52;50.10;40.80;66.06;;
37279;Laerm;7458;49.002;8.472;2023-07-31T05:51:18;44.85;39.58;54.65;;
37279;Laerm;7458;49.002;8.472;2023-07-31T05:53:44;45.54;39.34;67.09;;
37279;Laerm;7458;49.002;8.472;2023-07-31T05:56:10;48.89;40.71;66.64;;
37279;Laerm;7458;49.002;8.472;2023-07-31T05:58:35;46.62;40.13;64.63;;
37279;Laerm;7458;49.002;8.472;2023-07-31T06:01:01;50.17;40.23;65.28;;
37279;Laerm;7458;49.002;8.472;2023-07-31T06:03:27;45.93;40.33;64.94;;
37279;Laerm;7458;49.002;8.472;2023-07-31T06:05:53;49.27;40.33;64.61;;
37279;Laerm;7458;49.002;8.472;2023-07-31T06:08:19;46.75;39.92;62.99;;
37279;Laerm;7458;49.002;8.472;2023-07-31T06:10:45;49.13;40.53;66.77;;
37279;Laerm;7458;49.002;8.472;2023-07-31T06:13:11;53.90;40.53;75.29;;
37279;Laerm;7458;49.002;8.472;2023-07-31T06:15:37;47.83;39.81;73.36;;
37279;Laerm;7458;49.002;8.472;2023-07-31T06:18:03;48.33;40.03;68.25;;
37279;Laerm;7458;49.002;8.472;2023-07-31T06:20:30;51.36;39.92;67.88;;
37279;Laerm;7458;49.002;8.472;2023-07-31T06:22:56;50.54;39.58;64.91;;
37279;Laerm;7458;49.002;8.472;2023-07-31T06:25:21;46.38;39.21;62.92;;
37279;Laerm;7458;49.002;8.472;2023-07-31T06:27:47;51.64;40.13;71.01;;
37279;Laerm;7458;49.002;8.472;2023-07-31T06:30:13;48.40;39.70;66.61;;
37279;Laerm;7458;49.002;8.472;2023-07-31T06:32:38;51.70;41.14;69.46;;
37279;Laerm;7458;49.002;8.472;2023-07-31T06:35:06;50.78;40.62;68.63;;
37279;Laerm;7458;49.002;8.472;2023-07-31T06:37:32;48.91;40.23;63.80;;
37279;Laerm;7458;49.002;8.472;2023-07-31T06:39:57;54.46;40.62;72.63;;
37279;Laerm;7458;49.002;8.472;2023-07-31T06:42:23;46.78;39.92;62.76;;
37279;Laerm;7458;49.002;8.472;2023-07-31T06:44:49;52.79;40.23;73.82;;
37279;Laerm;7458;49.002;8.472;2023-07-31T06:47:15;45.13;40.80;58.30;;
37279;Laerm;7458;49.002;8.472;2023-07-31T06:49:41;45.71;41.38;57.79;;
37279;Laerm;7458;49.002;8.472;2023-07-31T06:52:06;45.69;38.67;60.43;;
37279;Laerm;7458;49.002;8.472;2023-07-31T06:54:32;50.66;40.13;72.82;;
37279;Laerm;7458;49.002;8.472;2023-07-31T06:56:58;52.10;40.43;67.89;;
37279;Laerm;7458;49.002;8.472;2023-07-31T06:59:24;59.24;40.80;76.12;;
37279;Laerm;7458;49.002;8.472;2023-07-31T07:01:49;58.52;40.43;78.79;;
37279;Laerm;7458;49.002;8.472;2023-07-31T07:04:16;44.14;40.71;53.98;;
37279;Laerm;7458;49.002;8.472;2023-07-31T07:06:44;46.06;40.62;60.42;;
37279;Laerm;7458;49.002;8.472;2023-07-31T07:09:10;48.48;40.33;64.03;;
37279;Laerm;7458;49.002;8.472;2023-07-31T07:11:36;56.26;40.62;74.67;;
37279;Laerm;7458;49.002;8.472;2023-07-31T07:14:02;62.96;41.14;79.95;;
37279;Laerm;7458;49.002;8.472;2023-07-31T07:16:28;54.15;40.80;70.65;;
37279;Laerm;7458;49.002;8.472;2023-07-31T07:18:54;57.43;42.71;75.37;;
37279;Laerm;7458;49.002;8.472;2023-07-31T07:21:20;51.24;43.04;66.33;;
37279;Laerm;7458;49.002;8.472;2023-07-31T07:23:46;47.69;42.76;53.01;;
37279;Laerm;7458;49.002;8.472;2023-07-31T07:26:11;49.61;40.03;67.52;;
37279;Laerm;7458;49.002;8.472;2023-07-31T07:28:37;47.61;43.24;56.98;;
37279;Laerm;7458;49.002;8.472;2023-07-31T07:31:03;46.01;42.71;53.82;;
37279;Laerm;7458;49.002;8.472;2023-07-31T07:33:29;49.33;41.53;67.07;;
37279;Laerm;7458;49.002;8.472;2023-07-31T07:36:01;45.57;41.82;55.13;;
37279;Laerm;7458;49.002;8.472;2023-07-31T07:38:30;48.18;41.61;65.70;;
37279;Laerm;7458;49.002;8.472;2023-07-31T07:40:56;52.48;40.89;68.93;;
37279;Laerm;7458;49.002;8.472;2023-07-31T07:43:22;48.38;40.43;66.61;;
37279;Laerm;7458;49.002;8.472;2023-07-31T07:45:49;45.68;40.27;63.57;;
37279;Laerm;7458;49.002;8.472;2023-07-31T07:48:15;49.40;40.62;63.26;;
37279;Laerm;7458;49.002;8.472;2023-07-31T07:50:42;50.69;41.06;67.80;;
37279;Laerm;7458;49.002;8.472;2023-07-31T07:53:08;46.97;40.71;64.25;;
37279;Laerm;7458;49.002;8.472;2023-07-31T07:55:35;49.42;40.62;66.51;;
37279;Laerm;7458;49.002;8.472;2023-07-31T07:58:01;51.26;41.53;66.72;;
37279;Laerm;7458;49.002;8.472;2023-07-31T08:00:27;51.61;40.80;71.23;;
37279;Laerm;7458;49.002;8.472;2023-07-31T08:02:52;51.28;41.46;66.97;;
37279;Laerm;7458;49.002;8.472;2023-07-31T08:05:18;50.52;40.62;65.82;;
37279;Laerm;7458;49.002;8.472;2023-07-31T08:07:44;55.66;40.13;76.64;;
37279;Laerm;7458;49.002;8.472;2023-07-31T08:10:10;46.85;41.22;63.96;;
37279;Laerm;7458;49.002;8.472;2023-07-31T08:12:35;48.48;40.71;63.96;;
37279;Laerm;7458;49.002;8.472;2023-07-31T08:15:01;52.87;40.98;74.37;;
37279;Laerm;7458;49.002;8.472;2023-07-31T08:17:27;46.94;40.33;59.49;;
37279;Laerm;7458;49.002;8.472;2023-07-31T08:19:53;46.03;40.43;63.13;;
37279;Laerm;7458;49.002;8.472;2023-07-31T08:22:19;46.59;40.98;63.26;;
37279;Laerm;7458;49.002;8.472;2023-07-31T08:24:44;44.02;39.46;51.71;;
37279;Laerm;7458;49.002;8.472;2023-07-31T08:27:10;50.95;41.53;66.39;;
37279;Laerm;7458;49.002;8.472;2023-07-31T08:29:37;55.21;41.75;71.47;;
37279;Laerm;7458;49.002;8.472;2023-07-31T08:32:02;48.72;39.92;62.17;;
37279;Laerm;7458;49.002;8.472;2023-07-31T08:34:28;49.04;41.53;63.99;;
37279;Laerm;7458;49.002;8.472;2023-07-31T08:36:55;49.68;41.22;64.44;;
37279;Laerm;7458;49.002;8.472;2023-07-31T08:39:20;47.61;40.98;64.82;;
37279;Laerm;7458;49.002;8.472;2023-07-31T08:41:47;47.56;41.06;68.52;;
37279;Laerm;7458;49.002;8.472;2023-07-31T08:44:15;48.95;41.55;63.65;;
37279;Laerm;7458;49.002;8.472;2023-07-31T08:46:41;46.32;41.38;63.16;;
37279;Laerm;7458;49.002;8.472;2023-07-31T08:49:09;51.32;42.41;65.31;;
37279;Laerm;7458;49.002;8.472;2023-07-31T08:51:36;51.08;41.06;68.61;;
37279;Laerm;7458;49.002;8.472;2023-07-31T08:54:02;46.63;41.06;62.96;;
37279;Laerm;7458;49.002;8.472;2023-07-31T08:56:33;49.41;40.71;66.24;;
37279;Laerm;7458;49.002;8.472;2023-07-31T08:59:05;48.82;41.38;67.83;;
37279;Laerm;7458;49.002;8.472;2023-07-31T09:01:42;47.45;41.14;60.96;;
37279;Laerm;7458;49.002;8.472;2023-07-31T09:04:09;49.21;41.14;64.52;;
37279;Laerm;7458;49.002;8.472;2023-07-31T09:06:37;49.20;40.80;64.78;;
37279;Laerm;7458;49.002;8.472;2023-07-31T09:09:03;51.98;41.06;69.67;;
37279;Laerm;7458;49.002;8.472;2023-07-31T09:11:29;60.18;41.06;87.48;;
37279;Laerm;7458;49.002;8.472;2023-07-31T09:13:57;51.43;40.80;68.55;;
37279;Laerm;7458;49.002;8.472;2023-07-31T09:16:30;49.49;41.14;65.06;;
37279;Laerm;7458;49.002;8.472;2023-07-31T09:18:58;49.30;41.06;68.94;;
37279;Laerm;7458;49.002;8.472;2023-07-31T09:21:24;52.35;42.03;69.53;;
37279;Laerm;7458;49.002;8.472;2023-07-31T09:23:51;57.08;41.22;75.55;;
37279;Laerm;7458;49.002;8.472;2023-07-31T09:26:39;54.41;40.80;67.30;;
37279;Laerm;7458;49.002;8.472;2023-07-31T09:29:07;57.18;42.16;65.16;;
37279;Laerm;7458;49.002;8.472;2023-07-31T09:31:44;61.46;54.85;69.61;;
37279;Laerm;7458;49.002;8.472;2023-07-31T09:34:11;57.54;42.41;78.42;;
37279;Laerm;7458;49.002;8.472;2023-07-31T09:39:11;53.73;40.53;80.77;;
37279;Laerm;7458;49.002;8.472;2023-07-31T09:41:39;50.94;41.68;65.61;;
37279;Laerm;7458;49.002;8.472;2023-07-31T09:44:06;53.93;42.09;70.87;;
37279;Laerm;7458;49.002;8.472;2023-07-31T09:46:35;46.74;40.33;67.49;;
37279;Laerm;7458;49.002;8.472;2023-07-31T09:49:12;51.14;41.46;66.64;;
37279;Laerm;7458;49.002;8.472;2023-07-31T09:51:40;53.55;40.43;72.23;;
37279;Laerm;7458;49.002;8.472;2023-07-31T09:56:42;46.33;40.13;57.55;;
37279;Laerm;7458;49.002;8.472;2023-07-31T09:59:13;50.75;41.53;65.88;;
37279;Laerm;7458;49.002;8.472;2023-07-31T10:01:41;57.95;41.68;78.09;;
37279;Laerm;7458;49.002;8.472;2023-07-31T10:04:11;46.05;40.88;58.43;;
37279;Laerm;7458;49.002;8.472;2023-07-31T10:06:39;46.53;42.16;67.42;;
37279;Laerm;7458;49.002;8.472;2023-07-31T10:09:09;50.50;43.19;66.28;;
37279;Laerm;7458;49.002;8.472;2023-07-31T10:12:00;52.27;41.82;72.35;;
37279;Laerm;7458;49.002;8.472;2023-07-31T10:14:27;51.45;40.03;69.59;;
37279;Laerm;7458;49.002;8.472;2023-07-31T10:16:54;44.87;40.03;58.07;;
37279;Laerm;7458;49.002;8.472;2023-07-31T10:19:22;47.97;40.53;61.87;;
37279;Laerm;7458;49.002;8.472;2023-07-31T10:21:49;52.87;41.06;69.94;;
37279;Laerm;7458;49.002;8.472;2023-07-31T10:24:16;47.84;39.92;62.48;;
37279;Laerm;7458;49.002;8.472;2023-07-31T10:26:46;51.41;40.43;67.06;;
37279;Laerm;7458;49.002;8.472;2023-07-31T10:29:14;46.25;39.92;58.82;;
37279;Laerm;7458;49.002;8.472;2023-07-31T10:31:41;46.52;40.23;66.68;;
37279;Laerm;7458;49.002;8.472;2023-07-31T10:34:07;47.52;41.11;61.71;;
37279;Laerm;7458;49.002;8.472;2023-07-31T10:36:33;46.44;40.62;71.62;;
37279;Laerm;7458;49.002;8.472;2023-07-31T10:38:59;51.06;40.23;68.95;;
37279;Laerm;7458;49.002;8.472;2023-07-31T10:41:29;44.62;40.23;63.63;;
37279;Laerm;7458;49.002;8.472;2023-07-31T10:44:02;46.78;41.22;63.73;;
37279;Laerm;7458;49.002;8.472;2023-07-31T10:46:28;48.91;39.21;65.65;;
37279;Laerm;7458;49.002;8.472;2023-07-31T10:49:00;47.52;41.38;63.79;;
37279;Laerm;7458;49.002;8.472;2023-07-31T10:51:34;49.19;39.34;66.41;;
37279;Laerm;7458;49.002;8.472;2023-07-31T10:54:13;58.95;40.80;81.98;;
37279;Laerm;7458;49.002;8.472;2023-07-31T10:56:50;46.86;39.70;62.62;;
37279;Laerm;7458;49.002;8.472;2023-07-31T10:59:16;48.68;40.23;66.13;;
37279;Laerm;7458;49.002;8.472;2023-07-31T11:01:55;46.35;40.13;58.95;;
37279;Laerm;7458;49.002;8.472;2023-07-31T11:04:27;53.95;40.33;82.40;;
37279;Laerm;7458;49.002;8.472;2023-07-31T11:07:02;47.72;40.33;63.62;;
37279;Laerm;7458;49.002;8.472;2023-07-31T11:09:32;48.99;40.13;66.34;;
37279;Laerm;7458;49.002;8.472;2023-07-31T11:11:59;47.69;41.46;62.91;;
37279;Laerm;7458;49.002;8.472;2023-07-31T11:14:25;50.34;42.71;69.36;;
37279;Laerm;7458;49.002;8.472;2023-07-31T11:16:51;48.64;40.80;65.04;;
37279;Laerm;7458;49.002;8.472;2023-07-31T11:19:24;49.45;41.68;70.73;;
37279;Laerm;7458;49.002;8.472;2023-07-31T11:21:54;57.43;41.68;77.54;;
37279;Laerm;7458;49.002;8.472;2023-07-31T11:24:19;59.51;42.22;83.03;;
37279;Laerm;7458;49.002;8.472;2023-07-31T11:26:53;51.43;40.62;70.35;;
37279;Laerm;7458;49.002;8.472;2023-07-31T11:29:19;50.52;39.70;76.46;;
37279;Laerm;7458;49.002;8.472;2023-07-31T11:31:47;50.00;40.89;67.23;;
37279;Laerm;7458;49.002;8.472;2023-07-31T11:34:14;49.86;41.22;72.18;;
37279;Laerm;7458;49.002;8.472;2023-07-31T11:36:40;46.17;40.03;59.71;;
37279;Laerm;7458;49.002;8.472;2023-07-31T11:39:10;50.81;40.80;67.74;;
37279;Laerm;7458;49.002;8.472;2023-07-31T11:41:40;50.03;41.06;68.57;;
37279;Laerm;7458;49.002;8.472;2023-07-31T11:44:06;44.38;41.38;53.82;;
37279;Laerm;7458;49.002;8.472;2023-07-31T11:46:32;49.36;39.81;67.14;;
37279;Laerm;7458;49.002;8.472;2023-07-31T11:49:01;50.73;41.14;69.83;;
37279;Laerm;7458;49.002;8.472;2023-07-31T11:51:28;53.08;41.22;75.36;;
37279;Laerm;7458;49.002;8.472;2023-07-31T11:54:00;56.34;41.81;76.49;;
37279;Laerm;7458;49.002;8.472;2023-07-31T11:56:27;48.13;42.16;64.25;;
37279;Laerm;7458;49.002;8.472;2023-07-31T11:58:58;49.52;41.22;71.09;;
37279;Laerm;7458;49.002;8.472;2023-07-31T12:01:26;55.59;40.80;79.19;;
37279;Laerm;7458;49.002;8.472;2023-07-31T12:03:53;48.24;42.03;70.05;;
37279;Laerm;7458;49.002;8.472;2023-07-31T12:06:19;49.64;41.06;71.44;;
37279;Laerm;7458;49.002;8.472;2023-07-31T12:08:48;54.10;41.75;72.73;;
37279;Laerm;7458;49.002;8.472;2023-07-31T12:11:14;48.63;41.68;66.43;;
37279;Laerm;7458;49.002;8.472;2023-07-31T12:13:40;50.74;40.23;67.80;;
37279;Laerm;7458;49.002;8.472;2023-07-31T12:16:06;51.05;40.71;73.17;;
37279;Laerm;7458;49.002;8.472;2023-07-31T12:18:37;45.74;39.46;59.77;;
37279;Laerm;7458;49.002;8.472;2023-07-31T12:21:09;43.32;40.03;51.47;;
37279;Laerm;7458;49.002;8.472;2023-07-31T12:23:37;59.35;41.38;81.78;;
37279;Laerm;7458;49.002;8.472;2023-07-31T12:26:10;53.79;47.10;62.34;;
37279;Laerm;7458;49.002;8.472;2023-07-31T12:28:48;53.56;45.77;73.07;;
37279;Laerm;7458;49.002;8.472;2023-07-31T12:31:21;51.11;44.97;73.14;;
37279;Laerm;7458;49.002;8.472;2023-07-31T12:33:51;53.00;46.10;71.91;;
37279;Laerm;7458;49.002;8.472;2023-07-31T12:36:21;52.92;46.07;65.88;;
37279;Laerm;7458;49.002;8.472;2023-07-31T12:38:48;53.57;47.42;67.90;;
37279;Laerm;7458;49.002;8.472;2023-07-31T12:41:14;51.53;46.76;60.22;;
37279;Laerm;7458;49.002;8.472;2023-07-31T12:43:43;55.55;45.48;76.71;;
37279;Laerm;7458;49.002;8.472;2023-07-31T12:46:10;50.96;45.07;63.46;;
37279;Laerm;7458;49.002;8.472;2023-07-31T12:48:37;51.34;45.23;67.71;;
37279;Laerm;7458;49.002;8.472;2023-07-31T12:51:03;49.16;43.42;65.62;;
37279;Laerm;7458;49.002;8.472;2023-07-31T12:53:29;46.97;42.22;71.27;;
37279;Laerm;7458;49.002;8.472;2023-07-31T12:55:56;45.28;42.71;55.64;;
37279;Laerm;7458;49.002;8.472;2023-07-31T12:58:22;47.03;42.29;62.53;;
37279;Laerm;7458;49.002;8.472;2023-07-31T13:00:48;52.75;42.76;70.22;;
37279;Laerm;7458;49.002;8.472;2023-07-31T13:03:14;50.74;40.62;65.81;;
37279;Laerm;7458;49.002;8.472;2023-07-31T13:05:41;52.12;41.61;71.09;;
37279;Laerm;7458;49.002;8.472;2023-07-31T13:08:06;54.43;45.17;76.87;;
37279;Laerm;7458;49.002;8.472;2023-07-31T13:10:32;58.38;46.15;79.47;;
37279;Laerm;7458;49.002;8.472;2023-07-31T13:12:58;52.58;46.55;66.54;;
37279;Laerm;7458;49.002;8.472;2023-07-31T13:15:24;52.81;46.05;65.20;;
37279;Laerm;7458;49.002;8.472;2023-07-31T13:17:50;56.65;50.54;68.24;;
37279;Laerm;7458;49.002;8.472;2023-07-31T13:20:16;55.22;43.99;65.85;;
37279;Laerm;7458;49.002;8.472;2023-07-31T13:22:41;51.11;42.16;69.02;;
37279;Laerm;7458;49.002;8.472;2023-07-31T13:25:07;48.26;42.71;66.90;;
37279;Laerm;7458;49.002;8.472;2023-07-31T13:27:35;47.99;43.19;62.36;;
37279;Laerm;7458;49.002;8.472;2023-07-31T13:30:01;53.88;43.24;72.40;;
37279;Laerm;7458;49.002;8.472;2023-07-31T13:32:26;54.19;42.41;74.45;;
37279;Laerm;7458;49.002;8.472;2023-07-31T13:34:52;52.21;43.04;79.78;;
37279;Laerm;7458;49.002;8.472;2023-07-31T13:37:18;48.58;43.81;61.92;;
37279;Laerm;7458;49.002;8.472;2023-07-31T13:39:44;49.75;43.72;64.60;;
37279;Laerm;7458;49.002;8.472;2023-07-31T13:42:10;58.37;44.03;77.93;;
37279;Laerm;7458;49.002;8.472;2023-07-31T13:44:38;55.39;43.24;75.24;;
37279;Laerm;7458;49.002;8.472;2023-07-31T13:47:04;54.12;41.38;69.22;;
37279;Laerm;7458;49.002;8.472;2023-07-31T13:49:30;50.70;41.53;68.63;;
37279;Laerm;7458;49.002;8.472;2023-07-31T13:51:57;50.21;41.06;73.88;;
37279;Laerm;7458;49.002;8.472;2023-07-31T13:54:23;46.78;40.43;59.86;;
37279;Laerm;7458;49.002;8.472;2023-07-31T13:56:50;51.42;40.62;69.22;;
37279;Laerm;7458;49.002;8.472;2023-07-31T13:59:15;46.72;40.23;64.90;;
37279;Laerm;7458;49.002;8.472;2023-07-31T14:01:43;53.61;40.62;79.34;;
37279;Laerm;7458;49.002;8.472;2023-07-31T14:04:09;51.97;41.30;78.05;;
37279;Laerm;7458;49.002;8.472;2023-07-31T14:06:35;54.50;41.22;72.92;;